createdAt,value
2017-10-09T00:00:00.069Z,98.73
2017-10-09T00:01:00.048Z,98.54
2017-10-09T00:02:00.021Z,98.26
2017-10-09T00:03:00.010Z,98.64
2017-10-09T00:03:59.977Z,98.26
2017-10-09T00:04:59.954Z,98.83
2017-10-09T00:05:59.928Z,98.64
2017-10-09T00:06:59.905Z,98.54
2017-10-09T00:07:59.891Z,98.73
2017-10-09T00:08:59.867Z,98.16
2017-10-09T00:09:59.850Z,98.07
2017-10-09T00:10:59.823Z,97.78
2017-10-09T00:11:59.802Z,97.88
2017-10-09T00:12:59.785Z,97.88
2017-10-09T00:13:59.761Z,98.07
2017-10-09T00:14:59.751Z,98.07
2017-10-09T00:15:59.713Z,98.26
2017-10-09T00:16:59.694Z,98.64
2017-10-09T00:17:59.677Z,98.07
2017-10-09T00:18:59.679Z,98.64
2017-10-09T00:19:59.627Z,98.16
2017-10-09T00:20:59.605Z,98.54
2017-10-09T00:21:59.591Z,98.26
2017-10-09T00:22:59.565Z,98.16
2017-10-09T00:23:59.543Z,98.16
2017-10-09T00:24:59.525Z,98.07
2017-10-09T00:25:59.507Z,98.26
2017-10-09T00:26:59.483Z,97.97
2017-10-09T00:27:59.468Z,98.16
2017-10-09T00:28:59.430Z,98.26
2017-10-09T00:29:59.406Z,98.16
2017-10-09T00:30:59.402Z,98.45
2017-10-09T00:31:59.368Z,98.07
2017-10-09T00:32:59.350Z,97.50
2017-10-09T00:33:59.320Z,98.45
2017-10-09T00:34:59.303Z,97.31
2017-10-09T00:35:59.281Z,98.16
2017-10-09T00:36:59.259Z,98.45
2017-10-09T00:37:59.238Z,98.64
2017-10-09T00:38:59.221Z,98.54
2017-10-09T00:39:59.199Z,98.54
2017-10-09T00:40:59.171Z,98.54
2017-10-09T00:41:59.154Z,98.73
2017-10-09T00:42:59.126Z,98.26
2017-10-09T00:43:59.103Z,98.26
2017-10-09T00:44:59.083Z,98.35
2017-10-09T00:45:59.068Z,97.69
2017-10-09T00:46:59.046Z,97.78
2017-10-09T00:47:59.016Z,97.97
2017-10-09T00:48:58.997Z,97.69
2017-10-09T00:49:58.972Z,97.50
2017-10-09T00:50:58.958Z,97.97
2017-10-09T00:51:58.945Z,97.97
2017-10-09T00:52:58.909Z,97.97
2017-10-09T00:53:58.901Z,97.88
2017-10-09T00:54:58.870Z,97.41
2017-10-09T00:55:58.845Z,97.78
2017-10-09T00:56:58.824Z,97.60
2017-10-09T00:57:58.808Z,97.78
2017-10-09T00:58:58.796Z,97.69
2017-10-09T00:59:58.758Z,97.60
2017-10-09T01:00:58.734Z,97.69
2017-10-09T01:01:58.714Z,97.22
2017-10-09T01:02:58.695Z,97.60
2017-10-09T01:03:58.698Z,97.41
2017-10-09T01:04:58.653Z,97.97
2017-10-09T01:05:58.629Z,97.88
2017-10-09T01:06:58.608Z,97.12
2017-10-09T01:07:58.587Z,97.50
2017-10-09T01:08:58.561Z,97.22
2017-10-09T01:09:58.545Z,97.31
2017-10-09T01:10:58.517Z,97.02
2017-10-09T01:11:58.499Z,97.97
2017-10-09T01:12:58.476Z,97.78
2017-10-09T01:13:58.454Z,97.31
2017-10-09T01:14:58.426Z,97.78
2017-10-09T01:16:00.119Z,97.78
2017-10-09T01:16:58.385Z,97.88
2017-10-09T01:17:58.365Z,97.31
2017-10-09T01:18:58.344Z,97.60
2017-10-09T01:19:58.322Z,97.78
2017-10-09T01:20:58.301Z,97.41
2017-10-09T01:21:58.280Z,97.50
2017-10-09T01:22:58.274Z,97.97
2017-10-09T01:23:58.233Z,97.97
2017-10-09T01:24:58.214Z,97.88
2017-10-09T01:25:58.189Z,97.78
2017-10-09T01:26:58.168Z,97.88
2017-10-09T01:27:58.156Z,97.41
2017-10-09T01:28:58.126Z,97.88
2017-10-09T01:29:58.106Z,97.88
2017-10-09T01:30:58.081Z,98.07
2017-10-09T01:31:58.063Z,97.97
2017-10-09T01:32:58.035Z,97.50
2017-10-09T01:33:58.028Z,97.97
2017-10-09T01:34:57.995Z,97.69
2017-10-09T01:35:57.977Z,97.88
2017-10-09T01:36:57.955Z,97.60
2017-10-09T01:37:57.929Z,97.78
2017-10-09T01:38:57.914Z,97.78
2017-10-09T01:39:57.884Z,96.93
2017-10-09T01:40:57.869Z,97.22
2017-10-09T01:41:57.845Z,97.22
2017-10-09T01:42:57.823Z,97.22
2017-10-09T01:43:57.794Z,97.50
2017-10-09T01:44:57.776Z,97.12
2017-10-09T01:45:57.756Z,97.12
2017-10-09T01:46:57.733Z,97.88
2017-10-09T01:47:57.716Z,97.31
2017-10-09T01:48:57.691Z,97.22
2017-10-09T01:49:57.664Z,96.93
2017-10-09T01:50:57.643Z,97.31
2017-10-09T01:51:57.641Z,97.12
2017-10-09T01:52:57.603Z,97.12
2017-10-09T01:53:57.582Z,97.69
2017-10-09T01:54:57.559Z,97.41
2017-10-09T01:55:57.540Z,97.60
2017-10-09T01:56:57.518Z,97.78
2017-10-09T01:57:57.492Z,97.60
2017-10-09T01:58:57.471Z,97.69
2017-10-09T01:59:57.451Z,97.97
2017-10-09T02:00:57.428Z,97.88
2017-10-09T02:01:57.414Z,97.88
2017-10-09T02:02:57.384Z,97.69
2017-10-09T02:03:57.364Z,97.88
2017-10-09T02:04:57.349Z,97.78
2017-10-09T02:05:57.322Z,97.78
2017-10-09T02:06:57.307Z,97.88
2017-10-09T02:07:57.276Z,97.50
2017-10-09T02:08:57.248Z,97.69
2017-10-09T02:09:57.232Z,97.22
2017-10-09T02:10:57.209Z,97.50
2017-10-09T02:11:57.181Z,97.69
2017-10-09T02:12:57.173Z,97.88
2017-10-09T02:13:57.146Z,97.50
2017-10-09T02:14:57.124Z,97.31
2017-10-09T02:15:57.098Z,97.78
2017-10-09T02:16:57.094Z,97.60
2017-10-09T02:17:57.057Z,97.60
2017-10-09T02:18:57.034Z,97.78
2017-10-09T02:19:57.019Z,97.31
2017-10-09T02:20:56.992Z,97.88
2017-10-09T02:21:56.971Z,97.78
2017-10-09T02:22:56.950Z,97.60
2017-10-09T02:23:56.921Z,97.50
2017-10-09T02:24:56.906Z,97.78
2017-10-09T02:25:56.878Z,97.88
2017-10-09T02:26:56.870Z,97.88
2017-10-09T02:27:56.839Z,97.41
2017-10-09T02:28:56.817Z,97.60
2017-10-09T02:29:56.792Z,97.78
2017-10-09T02:30:56.782Z,97.31
2017-10-09T02:31:56.753Z,97.78
2017-10-09T02:32:56.727Z,97.78
2017-10-09T02:33:56.706Z,97.78
2017-10-09T02:34:56.683Z,97.41
2017-10-09T02:35:56.663Z,97.60
2017-10-09T02:36:56.649Z,97.41
2017-10-09T02:37:56.628Z,97.88
2017-10-09T02:38:56.600Z,98.07
2017-10-09T02:39:56.578Z,97.78
2017-10-09T02:40:56.557Z,97.69
2017-10-09T02:41:56.539Z,97.60
2017-10-09T02:42:56.520Z,97.50
2017-10-09T02:43:56.497Z,97.88
2017-10-09T02:44:56.468Z,97.97
2017-10-09T02:45:56.446Z,97.50
2017-10-09T02:46:56.434Z,97.88
2017-10-09T02:47:56.399Z,97.97
2017-10-09T02:48:56.392Z,97.60
2017-10-09T02:49:56.364Z,97.60
2017-10-09T02:50:56.340Z,97.88
2017-10-09T02:51:56.328Z,98.26
2017-10-09T02:52:56.320Z,98.35
2017-10-09T02:53:56.281Z,98.45
2017-10-09T02:54:56.252Z,97.69
2017-10-09T02:55:56.233Z,97.78
2017-10-09T02:56:56.208Z,97.78
2017-10-09T02:57:56.187Z,98.73
2017-10-09T02:58:56.184Z,97.69
2017-10-09T02:59:56.155Z,97.88
2017-10-09T03:00:56.124Z,97.60
2017-10-09T03:01:56.107Z,97.50
2017-10-09T03:02:56.081Z,97.41
2017-10-09T03:03:56.055Z,97.78
2017-10-09T03:04:56.042Z,97.97
2017-10-09T03:05:56.013Z,97.12
2017-10-09T03:06:56.000Z,97.17
2017-10-09T03:07:55.969Z,97.17
2017-10-09T03:08:55.944Z,97.50
2017-10-09T03:09:55.937Z,97.22
2017-10-09T03:10:55.904Z,97.12
2017-10-09T03:11:55.891Z,97.12
2017-10-09T03:12:55.861Z,96.55
2017-10-09T03:13:55.842Z,96.88
2017-10-09T03:14:55.828Z,96.69
2017-10-09T03:15:55.799Z,96.79
2017-10-09T03:16:55.781Z,97.07
2017-10-09T03:17:55.756Z,96.88
2017-10-09T03:18:55.730Z,96.79
2017-10-09T03:19:55.712Z,96.79
2017-10-09T03:20:55.704Z,96.69
2017-10-09T03:21:55.666Z,97.07
2017-10-09T03:22:55.650Z,96.69
2017-10-09T03:23:55.638Z,96.31
2017-10-09T03:24:55.607Z,96.45
2017-10-09T03:25:55.577Z,96.31
2017-10-09T03:26:55.557Z,96.45
2017-10-09T03:27:55.540Z,96.26
2017-10-09T03:28:55.517Z,96.22
2017-10-09T03:29:55.499Z,96.36
2017-10-09T03:30:55.476Z,96.31
2017-10-09T03:31:55.448Z,96.12
2017-10-09T03:32:55.424Z,95.84
2017-10-09T03:33:55.408Z,96.22
2017-10-09T03:34:55.402Z,96.88
2017-10-09T03:35:55.371Z,96.69
2017-10-09T03:36:55.344Z,96.69
2017-10-09T03:37:55.316Z,97.07
2017-10-09T03:38:55.318Z,96.88
2017-10-09T03:39:55.278Z,96.88
2017-10-09T03:40:55.257Z,96.88
2017-10-09T03:41:55.262Z,97.17
2017-10-09T03:42:55.211Z,97.27
2017-10-09T03:43:55.193Z,96.98
2017-10-09T03:44:55.170Z,97.27
2017-10-09T03:45:55.146Z,96.98
2017-10-09T03:46:55.128Z,96.88
2017-10-09T03:47:55.116Z,96.79
2017-10-09T03:48:55.087Z,96.98
2017-10-09T03:49:55.076Z,97.17
2017-10-09T03:50:55.046Z,97.27
2017-10-09T03:51:55.016Z,97.27
2017-10-09T03:52:55.010Z,97.45
2017-10-09T03:53:54.983Z,97.45
2017-10-09T03:54:54.954Z,97.27
2017-10-09T03:55:54.933Z,97.27
2017-10-09T03:56:54.907Z,97.17
2017-10-09T03:57:54.889Z,98.12
2017-10-09T03:58:54.872Z,97.17
2017-10-09T03:59:54.845Z,97.45
2017-10-09T04:00:54.835Z,97.27
2017-10-09T04:01:54.805Z,97.45
2017-10-09T04:02:54.780Z,96.98
2017-10-09T04:03:54.763Z,97.55
2017-10-09T04:04:54.734Z,97.07
2017-10-09T04:05:54.721Z,97.27
2017-10-09T04:06:54.699Z,97.92
2017-10-09T04:07:54.671Z,97.74
2017-10-09T04:08:54.654Z,98.12
2017-10-09T04:09:54.640Z,97.36
2017-10-09T04:10:54.617Z,97.83
2017-10-09T04:11:54.590Z,97.83
2017-10-09T04:12:54.565Z,98.02
2017-10-09T04:13:54.547Z,97.92
2017-10-09T04:14:54.527Z,98.31
2017-10-09T04:15:54.501Z,98.69
2017-10-09T04:16:54.477Z,97.36
2017-10-09T04:17:54.454Z,98.31
2017-10-09T04:18:54.429Z,97.36
2017-10-09T04:19:54.419Z,98.69
2017-10-09T04:20:54.402Z,98.50
2017-10-09T04:21:54.381Z,98.40
2017-10-09T04:22:54.352Z,97.27
2017-10-09T04:23:54.323Z,97.74
2017-10-09T04:24:54.315Z,97.74
2017-10-09T04:25:54.284Z,97.64
2017-10-09T04:26:54.265Z,98.31
2017-10-09T04:27:54.245Z,98.50
2017-10-09T04:28:54.239Z,98.21
2017-10-09T04:29:54.190Z,97.64
2017-10-09T04:30:54.181Z,98.59
2017-10-09T04:31:54.677Z,98.21
2017-10-09T04:32:54.131Z,98.21
2017-10-09T04:33:54.114Z,98.21
2017-10-09T04:34:54.094Z,98.59
2017-10-09T04:35:54.068Z,98.12
2017-10-09T04:36:54.045Z,98.31
2017-10-09T04:37:54.030Z,98.12
2017-10-09T04:38:54.007Z,98.40
2017-10-09T04:39:54.010Z,98.31
2017-10-09T04:40:53.969Z,98.40
2017-10-09T04:41:53.949Z,98.31
2017-10-09T04:42:53.946Z,98.12
2017-10-09T04:43:53.900Z,98.31
2017-10-09T04:44:53.870Z,98.12
2017-10-09T04:45:53.853Z,98.88
2017-10-09T04:46:53.838Z,98.21
2017-10-09T04:47:53.807Z,98.02
2017-10-09T04:48:53.803Z,98.21
2017-10-09T04:49:53.770Z,98.31
2017-10-09T04:50:53.767Z,97.83
2017-10-09T04:51:53.724Z,98.21
2017-10-09T04:52:53.694Z,98.21
2017-10-09T04:53:53.716Z,97.74
2017-10-09T04:54:53.653Z,98.12
2017-10-09T04:55:53.651Z,98.31
2017-10-09T04:56:53.617Z,97.83
2017-10-09T04:57:53.594Z,98.40
2017-10-09T04:58:53.579Z,98.12
2017-10-09T04:59:53.547Z,98.31
2017-10-09T05:00:53.542Z,98.21
2017-10-09T05:01:53.524Z,98.31
2017-10-09T05:02:53.483Z,98.12
2017-10-09T05:03:53.468Z,98.40
2017-10-09T05:04:53.450Z,98.21
2017-10-09T05:05:53.419Z,98.12
2017-10-09T05:06:53.401Z,98.50
2017-10-09T05:07:53.391Z,98.40
2017-10-09T05:08:53.381Z,98.40
2017-10-09T05:09:53.512Z,97.45
2017-10-09T05:10:53.462Z,98.40
2017-10-09T05:12:04.185Z,98.50
2017-10-09T05:12:53.348Z,98.40
2017-10-09T05:13:53.315Z,98.31
2017-10-09T05:14:53.227Z,98.59
2017-10-09T05:15:53.218Z,97.64
2017-10-09T05:16:53.195Z,97.36
2017-10-09T05:17:53.165Z,98.45
2017-10-09T05:18:53.134Z,97.50
2017-10-09T05:19:53.119Z,98.64
2017-10-09T05:20:53.099Z,98.36
2017-10-09T05:21:53.083Z,98.79
2017-10-09T05:22:53.081Z,98.59
2017-10-09T05:23:53.038Z,98.64
2017-10-09T05:24:53.032Z,97.60
2017-10-09T05:25:53.005Z,98.36
2017-10-09T05:26:52.963Z,97.55
2017-10-09T05:27:52.964Z,97.83
2017-10-09T05:28:52.962Z,98.02
2017-10-09T05:29:52.897Z,98.02
2017-10-09T05:30:52.885Z,97.45
2017-10-09T05:31:52.871Z,98.02
2017-10-09T05:32:52.847Z,97.92
2017-10-09T05:33:52.835Z,97.92
2017-10-09T05:34:52.852Z,98.02
2017-10-09T05:35:52.771Z,97.83
2017-10-09T05:36:52.781Z,97.92
2017-10-09T05:37:52.725Z,97.55
2017-10-09T05:38:52.718Z,97.74
2017-10-09T05:39:52.723Z,97.92
2017-10-09T05:40:52.675Z,97.74
2017-10-09T05:41:52.672Z,97.92
2017-10-09T05:42:52.620Z,97.83
2017-10-09T05:43:52.608Z,98.12
2017-10-09T05:44:52.582Z,98.12
2017-10-09T05:45:52.562Z,98.02
2017-10-09T05:46:52.538Z,97.36
2017-10-09T05:47:52.524Z,98.40
2017-10-09T05:48:52.505Z,98.40
2017-10-09T05:49:52.514Z,98.40
2017-10-09T05:50:52.452Z,98.40
2017-10-09T05:51:52.469Z,98.40
2017-10-09T05:52:52.433Z,98.59
2017-10-09T05:53:52.423Z,97.64
2017-10-09T05:54:52.373Z,98.31
2017-10-09T05:55:52.371Z,98.21
2017-10-09T05:56:52.363Z,98.40
2017-10-09T05:57:52.298Z,98.79
2017-10-09T05:58:52.315Z,98.59
2017-10-09T05:59:52.278Z,98.36
2017-10-09T06:00:52.271Z,98.07
2017-10-09T06:01:52.226Z,97.78
2017-10-09T06:02:52.204Z,98.02
2017-10-09T06:03:52.197Z,97.97
2017-10-09T06:04:52.184Z,97.92
2017-10-09T06:05:52.153Z,97.60
2017-10-09T06:06:52.106Z,97.50
2017-10-09T06:07:52.105Z,97.60
2017-10-09T06:08:52.068Z,97.88
2017-10-09T06:09:52.083Z,97.69
2017-10-09T06:10:52.027Z,97.78
2017-10-09T06:11:51.997Z,97.03
2017-10-09T06:12:51.984Z,97.22
2017-10-09T06:13:51.958Z,97.88
2017-10-09T06:14:51.955Z,97.88
2017-10-09T06:15:51.935Z,97.88
2017-10-09T06:16:51.913Z,97.88
2017-10-09T06:17:51.884Z,97.97
2017-10-09T06:18:51.862Z,97.22
2017-10-09T06:19:51.842Z,97.12
2017-10-09T06:20:51.812Z,97.60
2017-10-09T06:21:51.796Z,97.50
2017-10-09T06:22:51.773Z,97.60
2017-10-09T06:23:51.741Z,97.12
2017-10-09T06:24:51.720Z,96.93
2017-10-09T06:25:51.727Z,97.41
2017-10-09T06:26:51.699Z,97.12
2017-10-09T06:27:51.672Z,96.74
2017-10-09T06:28:51.669Z,96.84
2017-10-09T06:29:51.659Z,96.74
2017-10-09T06:30:51.610Z,96.65
2017-10-09T06:31:51.577Z,97.22
2017-10-09T06:32:51.556Z,97.60
2017-10-09T06:33:51.528Z,97.41
2017-10-09T06:34:51.541Z,96.74
2017-10-09T06:35:51.512Z,96.84
2017-10-09T06:36:51.466Z,96.65
2017-10-09T06:37:51.485Z,96.08
2017-10-09T06:38:51.440Z,96.41
2017-10-09T06:39:51.412Z,96.50
2017-10-09T06:40:51.379Z,96.03
2017-10-09T06:41:51.396Z,96.12
2017-10-09T06:42:51.363Z,95.75
2017-10-09T06:43:51.323Z,95.17
2017-10-09T06:44:51.308Z,94.79
2017-10-09T06:45:51.286Z,94.60
2017-10-09T06:46:51.263Z,94.79
2017-10-09T06:47:51.236Z,94.65
2017-10-09T06:48:51.211Z,94.56
2017-10-09T06:49:51.207Z,94.08
2017-10-09T06:50:51.196Z,94.18
2017-10-09T06:51:51.172Z,94.08
2017-10-09T06:52:51.126Z,93.23
2017-10-09T06:53:51.105Z,92.94
2017-10-09T06:54:51.094Z,92.56
2017-10-09T06:55:51.072Z,92.51
2017-10-09T06:56:51.038Z,92.13
2017-10-09T06:57:51.024Z,91.94
2017-10-09T06:58:51.008Z,92.36
2017-10-09T06:59:50.986Z,92.08
2017-10-09T07:00:50.977Z,92.46
2017-10-09T07:01:50.946Z,92.32
2017-10-09T07:02:50.927Z,91.84
2017-10-09T07:03:50.908Z,91.37
2017-10-09T07:04:50.874Z,91.17
2017-10-09T07:05:50.866Z,91.17
2017-10-09T07:06:50.839Z,90.51
2017-10-09T07:07:50.826Z,90.42
2017-10-09T07:08:50.804Z,90.42
2017-10-09T07:09:50.793Z,90.03
2017-10-09T07:10:50.782Z,89.75
2017-10-09T07:11:50.748Z,89.89
2017-10-09T07:12:50.712Z,89.47
2017-10-09T07:13:50.698Z,89.22
2017-10-09T07:14:50.692Z,89.51
2017-10-09T07:15:50.660Z,89.22
2017-10-09T07:16:50.642Z,89.51
2017-10-09T07:17:50.627Z,89.51
2017-10-09T07:18:50.609Z,89.51
2017-10-09T07:19:50.580Z,89.41
2017-10-09T07:20:50.554Z,88.84
2017-10-09T07:21:50.539Z,89.13
2017-10-09T07:22:50.506Z,89.03
2017-10-09T07:23:50.498Z,88.93
2017-10-09T07:24:50.483Z,88.60
2017-10-09T07:25:50.466Z,88.31
2017-10-09T07:26:50.429Z,88.03
2017-10-09T07:27:50.423Z,87.07
2017-10-09T07:28:50.388Z,87.17
2017-10-09T07:29:50.376Z,86.41
2017-10-09T07:30:50.358Z,86.65
2017-10-09T07:31:50.341Z,86.74
2017-10-09T07:32:50.310Z,86.51
2017-10-09T07:33:50.300Z,85.74
2017-10-09T07:34:50.286Z,86.03
2017-10-09T07:35:50.255Z,86.16
2017-10-09T07:36:50.266Z,86.16
2017-10-09T07:37:50.213Z,86.45
2017-10-09T07:38:50.221Z,85.60
2017-10-09T07:39:50.166Z,85.88
2017-10-09T07:40:50.156Z,85.50
2017-10-09T07:41:50.130Z,85.02
2017-10-09T07:42:50.111Z,84.69
2017-10-09T07:43:50.092Z,84.40
2017-10-09T07:44:50.092Z,84.49
2017-10-09T07:45:50.053Z,84.20
2017-10-09T07:46:50.042Z,84.11
2017-10-09T07:47:50.010Z,84.20
2017-10-09T07:48:50.005Z,84.06
2017-10-09T07:49:49.991Z,82.63
2017-10-09T07:50:49.952Z,82.09
2017-10-09T07:51:49.934Z,81.52
2017-10-09T07:52:49.930Z,79.85
2017-10-09T07:53:49.890Z,78.79
2017-10-09T07:54:49.880Z,77.11
2017-10-09T07:55:49.866Z,76.29
2017-10-09T07:56:49.842Z,75.52
2017-10-09T07:57:49.825Z,74.48
2017-10-09T07:58:49.799Z,75.39
2017-10-09T07:59:49.778Z,75.30
2017-10-09T08:00:49.767Z,75.20
2017-10-09T08:01:49.760Z,75.30
2017-10-09T08:02:49.728Z,75.59
2017-10-09T08:03:49.718Z,75.59
2017-10-09T08:04:49.719Z,75.34
2017-10-09T08:05:49.681Z,74.76
2017-10-09T08:06:49.660Z,74.57
2017-10-09T08:07:49.659Z,73.99
2017-10-09T08:08:49.645Z,73.75
2017-10-09T08:09:49.594Z,72.98
2017-10-09T08:10:49.585Z,72.50
2017-10-09T08:11:49.570Z,72.50
2017-10-09T08:12:49.545Z,72.08
2017-10-09T08:13:49.531Z,72.47
2017-10-09T08:14:49.509Z,72.75
2017-10-09T08:15:49.510Z,73.23
2017-10-09T08:16:49.481Z,73.23
2017-10-09T08:17:49.458Z,73.90
2017-10-09T08:18:49.443Z,73.90
2017-10-09T08:19:49.418Z,73.43
2017-10-09T08:20:49.401Z,73.04
2017-10-09T08:21:49.382Z,72.88
2017-10-09T08:22:49.375Z,72.69
2017-10-09T08:23:49.349Z,72.02
2017-10-09T08:24:49.339Z,71.39
2017-10-09T08:25:49.321Z,69.89
2017-10-09T08:26:49.303Z,68.68
2017-10-09T08:27:49.297Z,66.64
2017-10-09T08:28:49.267Z,65.23
2017-10-09T08:29:49.252Z,63.64
2017-10-09T08:30:49.236Z,62.07
2017-10-09T08:31:49.224Z,60.17
2017-10-09T08:32:49.204Z,59.15
2017-10-09T08:33:49.192Z,58.15
2017-10-09T08:34:49.177Z,55.77
2017-10-09T08:35:49.151Z,53.61
2017-10-09T08:36:49.142Z,51.87
2017-10-09T08:37:49.143Z,51.20
2017-10-09T08:38:49.109Z,50.45
2017-10-09T08:39:49.096Z,49.80
2017-10-09T08:40:49.089Z,49.05
2017-10-09T08:41:49.090Z,48.66
2017-10-09T08:42:49.056Z,48.79
2017-10-09T08:43:49.053Z,47.81
2017-10-09T08:44:49.030Z,46.75
2017-10-09T08:45:49.024Z,45.91
2017-10-09T08:46:49.019Z,44.46
2017-10-09T08:47:48.990Z,44.56
2017-10-09T08:48:48.990Z,44.19
2017-10-09T08:49:48.982Z,43.41
2017-10-09T08:50:48.956Z,42.86
2017-10-09T08:51:48.954Z,42.49
2017-10-09T08:52:48.937Z,42.10
2017-10-09T08:53:48.917Z,40.84
2017-10-09T08:54:48.907Z,40.75
2017-10-09T08:55:48.921Z,40.26
2017-10-09T08:56:48.898Z,40.34
2017-10-09T08:57:48.875Z,40.53
2017-10-09T08:58:48.853Z,41.29
2017-10-09T08:59:48.856Z,41.29
2017-10-09T09:00:48.850Z,42.72
2017-10-09T09:01:48.820Z,43.20
2017-10-09T09:02:48.815Z,42.82
2017-10-09T09:03:48.801Z,42.72
2017-10-09T09:04:48.800Z,42.62
2017-10-09T09:05:48.799Z,41.94
2017-10-09T09:06:48.766Z,42.43
2017-10-09T09:07:48.772Z,42.45
2017-10-09T09:08:48.761Z,41.91
2017-10-09T09:09:48.740Z,40.50
2017-10-09T09:10:48.726Z,39.24
2017-10-09T09:11:48.707Z,39.20
2017-10-09T09:12:48.706Z,40.42
2017-10-09T09:13:48.691Z,42.24
2017-10-09T09:14:48.683Z,41.75
2017-10-09T09:15:48.663Z,41.60
2017-10-09T09:16:48.678Z,40.23
2017-10-09T09:17:48.666Z,41.56
2017-10-09T09:18:48.648Z,42.10
2017-10-09T09:19:48.657Z,43.79
2017-10-09T09:20:48.625Z,44.62
2017-10-09T09:21:48.603Z,45.94
2017-10-09T09:22:48.596Z,47.44
2017-10-09T09:23:48.582Z,48.76
2017-10-09T09:24:48.577Z,50.46
2017-10-09T09:25:48.582Z,51.50
2017-10-09T09:26:48.541Z,52.43
2017-10-09T09:27:48.535Z,53.36
2017-10-09T09:28:48.527Z,54.90
2017-10-09T09:29:48.511Z,56.31
2017-10-09T09:30:48.496Z,57.43
2017-10-09T09:31:48.492Z,57.92
2017-10-09T09:32:48.471Z,58.84
2017-10-09T09:33:48.477Z,59.42
2017-10-09T09:34:48.438Z,60.16
2017-10-09T09:35:48.445Z,61.21
2017-10-09T09:36:48.451Z,61.79
2017-10-09T09:37:48.394Z,61.76
2017-10-09T09:38:48.391Z,62.52
2017-10-09T09:39:48.376Z,63.67
2017-10-09T09:40:48.366Z,64.34
2017-10-09T09:41:48.351Z,64.43
2017-10-09T09:42:48.571Z,64.63
2017-10-09T09:43:48.310Z,65.01
2017-10-09T09:44:48.305Z,64.31
2017-10-09T09:45:48.280Z,61.78
2017-10-09T09:46:48.278Z,60.05
2017-10-09T09:47:48.292Z,57.42
2017-10-09T09:48:48.244Z,55.23
2017-10-09T09:49:48.228Z,54.27
2017-10-09T09:50:48.218Z,53.98
2017-10-09T09:51:48.194Z,53.66
2017-10-09T09:52:48.184Z,53.47
2017-10-09T09:53:48.167Z,53.96
2017-10-09T09:54:48.164Z,54.02
2017-10-09T09:55:48.138Z,54.86
2017-10-09T09:56:48.144Z,55.02
2017-10-09T09:57:48.119Z,56.05
2017-10-09T09:58:48.098Z,56.41
2017-10-09T09:59:48.091Z,56.98
2017-10-09T10:00:48.070Z,57.82
2017-10-09T10:01:48.054Z,58.46
2017-10-09T10:02:48.036Z,58.84
2017-10-09T10:03:48.026Z,59.11
2017-10-09T10:04:48.023Z,58.44
2017-10-09T10:05:47.991Z,59.80
2017-10-09T10:06:47.990Z,58.91
2017-10-09T10:07:48.032Z,56.65
2017-10-09T10:08:47.956Z,52.16
2017-10-09T10:09:47.935Z,48.39
2017-10-09T10:10:47.918Z,43.07
2017-10-09T10:11:47.902Z,38.79
2017-10-09T10:12:47.937Z,35.55
2017-10-09T10:13:47.888Z,31.41
2017-10-09T10:14:47.883Z,28.72
2017-10-09T10:15:47.866Z,27.87
2017-10-09T10:16:47.848Z,26.32
2017-10-09T10:17:47.837Z,25.26
2017-10-09T10:18:47.831Z,24.07
2017-10-09T10:19:47.810Z,23.94
2017-10-09T10:20:47.818Z,26.03
2017-10-09T10:21:47.811Z,27.28
2017-10-09T10:22:47.787Z,28.05
2017-10-09T10:23:47.791Z,27.18
2017-10-09T10:24:47.778Z,27.28
2017-10-09T10:25:47.762Z,27.67
2017-10-09T10:26:49.154Z,28.90
2017-10-09T10:27:47.746Z,28.39
2017-10-09T10:28:47.745Z,29.99
2017-10-09T10:29:47.739Z,32.65
2017-10-09T10:30:47.736Z,35.02
2017-10-09T10:31:47.705Z,34.01
2017-10-09T10:32:47.700Z,35.35
2017-10-09T10:33:47.701Z,36.39
2017-10-09T10:34:47.711Z,36.00
2017-10-09T10:35:47.665Z,36.99
2017-10-09T10:36:47.669Z,38.70
2017-10-09T10:37:47.652Z,40.03
2017-10-09T10:38:47.631Z,41.83
2017-10-09T10:39:47.635Z,42.37
2017-10-09T10:40:47.649Z,43.70
2017-10-09T10:41:47.607Z,44.94
2017-10-09T10:42:47.605Z,44.15
2017-10-09T10:43:47.580Z,45.21
2017-10-09T10:44:47.581Z,46.24
2017-10-09T10:45:47.557Z,46.81
2017-10-09T10:46:47.545Z,47.01
2017-10-09T10:47:47.530Z,48.35
2017-10-09T10:48:47.519Z,46.81
2017-10-09T10:49:47.513Z,47.30
2017-10-09T10:50:47.494Z,48.35
2017-10-09T10:51:47.516Z,48.85
2017-10-09T10:52:47.461Z,48.47
2017-10-09T10:53:47.450Z,47.66
2017-10-09T10:54:47.434Z,46.62
2017-10-09T10:55:47.428Z,45.29
2017-10-09T10:56:47.412Z,44.26
2017-10-09T10:57:47.404Z,43.80
2017-10-09T10:58:47.391Z,43.54
2017-10-09T10:59:47.368Z,42.19
2017-10-09T11:00:47.359Z,41.14
2017-10-09T11:01:47.341Z,41.17
2017-10-09T11:02:47.333Z,40.22
2017-10-09T11:03:47.325Z,38.51
2017-10-09T11:04:47.306Z,37.63
2017-10-09T11:05:47.288Z,37.56
2017-10-09T11:06:47.278Z,37.38
2017-10-09T11:07:47.261Z,36.36
2017-10-09T11:08:47.252Z,34.38
2017-10-09T11:09:47.257Z,32.59
2017-10-09T11:10:47.221Z,30.21
2017-10-09T11:11:47.213Z,27.51
2017-10-09T11:12:47.206Z,26.26
2017-10-09T11:13:47.192Z,26.39
2017-10-09T11:14:47.175Z,26.59
2017-10-09T11:15:47.176Z,25.25
2017-10-09T11:16:47.182Z,24.10
2017-10-09T11:17:47.146Z,23.51
2017-10-09T11:18:47.135Z,23.49
2017-10-09T11:19:47.127Z,24.05
2017-10-09T11:20:47.112Z,23.86
2017-10-09T11:21:47.135Z,23.10
2017-10-09T11:22:47.097Z,22.90
2017-10-09T11:23:47.082Z,22.88
2017-10-09T11:24:47.070Z,24.04
2017-10-09T11:25:47.066Z,25.18
2017-10-09T11:26:47.060Z,25.54
2017-10-09T11:27:47.058Z,26.01
2017-10-09T11:28:47.038Z,26.39
2017-10-09T11:29:47.032Z,26.46
2017-10-09T11:30:47.028Z,27.81
2017-10-09T11:31:47.027Z,29.44
2017-10-09T11:32:47.002Z,29.80
2017-10-09T11:33:47.008Z,31.22
2017-10-09T11:34:46.982Z,33.42
2017-10-09T11:35:46.977Z,33.98
2017-10-09T11:36:46.957Z,34.64
2017-10-09T11:37:46.953Z,35.52
2017-10-09T11:38:46.938Z,36.46
2017-10-09T11:39:46.931Z,36.83
2017-10-09T11:40:46.960Z,36.52
2017-10-09T11:41:46.906Z,36.91
2017-10-09T11:42:46.896Z,38.06
2017-10-09T11:43:46.906Z,38.29
2017-10-09T11:44:46.895Z,37.19
2017-10-09T11:45:46.863Z,34.15
2017-10-09T11:46:46.855Z,32.56
2017-10-09T11:47:46.840Z,30.07
2017-10-09T11:48:46.838Z,28.74
2017-10-09T11:49:46.822Z,28.05
2017-10-09T11:50:46.822Z,28.53
2017-10-09T11:51:46.793Z,29.38
2017-10-09T11:52:46.792Z,28.77
2017-10-09T11:53:46.779Z,30.04
2017-10-09T11:54:46.765Z,30.57
2017-10-09T11:55:46.758Z,31.43
2017-10-09T11:56:46.744Z,32.65
2017-10-09T11:57:46.728Z,33.04
2017-10-09T11:58:46.738Z,33.14
2017-10-09T11:59:46.733Z,33.73
2017-10-09T12:00:46.707Z,33.54
2017-10-09T12:01:46.680Z,33.23
2017-10-09T12:02:46.674Z,34.28
2017-10-09T12:03:46.661Z,35.02
2017-10-09T12:04:46.655Z,35.69
2017-10-09T12:05:46.648Z,36.23
2017-10-09T12:06:46.628Z,37.48
2017-10-09T12:07:46.611Z,37.87
2017-10-09T12:08:46.607Z,38.26
2017-10-09T12:09:46.586Z,38.54
2017-10-09T12:10:46.602Z,38.35
2017-10-09T12:11:46.560Z,39.01
2017-10-09T12:12:46.563Z,39.18
2017-10-09T12:13:46.546Z,40.70
2017-10-09T12:14:46.533Z,42.03
2017-10-09T12:15:46.517Z,42.89
2017-10-09T12:16:46.526Z,44.12
2017-10-09T12:17:46.492Z,44.00
2017-10-09T12:18:46.477Z,44.56
2017-10-09T12:19:46.467Z,46.65
2017-10-09T12:20:46.453Z,47.61
2017-10-09T12:21:46.434Z,48.54
2017-10-09T12:22:46.438Z,48.83
2017-10-09T12:23:46.408Z,49.67
2017-10-09T12:24:46.396Z,50.34
2017-10-09T12:25:46.375Z,50.82
2017-10-09T12:26:46.382Z,51.87
2017-10-09T12:27:46.359Z,50.99
2017-10-09T12:28:46.348Z,51.65
2017-10-09T12:29:46.322Z,52.14
2017-10-09T12:30:46.321Z,52.71
2017-10-09T12:31:46.301Z,53.09
2017-10-09T12:32:46.277Z,53.00
2017-10-09T12:33:46.279Z,53.48
2017-10-09T12:34:46.261Z,52.62
2017-10-09T12:35:46.237Z,53.00
2017-10-09T12:36:46.215Z,54.05
2017-10-09T12:37:46.209Z,53.83
2017-10-09T12:38:46.192Z,53.45
2017-10-09T12:39:46.183Z,53.74
2017-10-09T12:40:46.167Z,54.60
2017-10-09T12:41:46.187Z,55.56
2017-10-09T12:42:46.131Z,56.13
2017-10-09T12:43:46.110Z,55.75
2017-10-09T12:44:46.103Z,54.79
2017-10-09T12:45:46.086Z,53.93
2017-10-09T12:46:46.068Z,54.77
2017-10-09T12:47:46.049Z,55.46
2017-10-09T12:48:46.035Z,55.63
2017-10-09T12:49:46.026Z,55.73
2017-10-09T12:50:46.005Z,56.01
2017-10-09T12:51:46.046Z,56.87